sensor_id;sensor_type;location;lat;lon;timestamp;P1;durP1;ratioP1;P2;durP2;ratioP2
2476;SDS011;1249;51.270;6.756;2023-02-28T00:01:29;68.47;;;63.00;;
2476;SDS011;1249;51.270;6.756;2023-02-28T00:03:57;65.60;;;61.33;;
2476;SDS011;1249;51.270;6.756;2023-02-28T00:06:25;80.37;;;75.37;;
2476;SDS011;1249;51.270;6.756;2023-02-28T00:08:52;58.60;;;54.00;;
2476;SDS011;1249;51.270;6.756;2023-02-28T00:11:19;95.50;;;90.13;;
2476;SDS011;1249;51.270;6.756;2023-02-28T00:13:47;71.10;;;66.60;;
2476;SDS011;1249;51.270;6.756;2023-02-28T00:16:15;91.87;;;86.37;;
2476;SDS011;1249;51.270;6.756;2023-02-28T00:18:44;91.73;;;85.73;;
2476;SDS011;1249;51.270;6.756;2023-02-28T00:21:12;77.03;;;72.27;;
2476;SDS011;1249;51.270;6.756;2023-02-28T00:23:39;73.40;;;69.07;;
2476;SDS011;1249;51.270;6.756;2023-02-28T00:26:06;51.80;;;48.47;;
2476;SDS011;1249;51.270;6.756;2023-02-28T00:28:32;69.93;;;65.50;;
2476;SDS011;1249;51.270;6.756;2023-02-28T00:31:00;71.03;;;67.40;;
2476;SDS011;1249;51.270;6.756;2023-02-28T00:33:28;78.47;;;73.50;;
2476;SDS011;1249;51.270;6.756;2023-02-28T00:36:05;88.00;;;82.13;;
2476;SDS011;1249;51.270;6.756;2023-02-28T00:38:33;89.77;;;84.63;;
2476;SDS011;1249;51.270;6.756;2023-02-28T00:41:00;65.07;;;61.47;;
2476;SDS011;1249;51.270;6.756;2023-02-28T00:43:30;50.13;;;46.00;;
2476;SDS011;1249;51.270;6.756;2023-02-28T00:45:57;58.40;;;54.70;;
2476;SDS011;1249;51.270;6.756;2023-02-28T00:48:26;79.00;;;74.50;;
2476;SDS011;1249;51.270;6.756;2023-02-28T00:50:53;74.33;;;69.17;;
2476;SDS011;1249;51.270;6.756;2023-02-28T00:53:20;88.27;;;82.97;;
2476;SDS011;1249;51.270;6.756;2023-02-28T00:55:47;79.50;;;73.90;;
2476;SDS011;1249;51.270;6.756;2023-02-28T00:58:14;73.50;;;69.13;;
2476;SDS011;1249;51.270;6.756;2023-02-28T01:00:40;121.00;;;113.63;;
2476;SDS011;1249;51.270;6.756;2023-02-28T01:03:07;112.40;;;106.13;;
2476;SDS011;1249;51.270;6.756;2023-02-28T01:05:35;85.97;;;80.77;;
2476;SDS011;1249;51.270;6.756;2023-02-28T01:08:02;83.20;;;77.57;;
2476;SDS011;1249;51.270;6.756;2023-02-28T01:10:29;75.63;;;71.30;;
2476;SDS011;1249;51.270;6.756;2023-02-28T01:12:56;61.20;;;56.20;;
2476;SDS011;1249;51.270;6.756;2023-02-28T01:15:23;79.37;;;74.60;;
2476;SDS011;1249;51.270;6.756;2023-02-28T01:17:50;71.17;;;66.40;;
2476;SDS011;1249;51.270;6.756;2023-02-28T01:20:17;77.40;;;72.70;;
2476;SDS011;1249;51.270;6.756;2023-02-28T01:22:45;71.77;;;67.50;;
2476;SDS011;1249;51.270;6.756;2023-02-28T01:25:12;84.80;;;79.40;;
2476;SDS011;1249;51.270;6.756;2023-02-28T01:27:39;97.67;;;90.30;;
2476;SDS011;1249;51.270;6.756;2023-02-28T01:30:06;70.57;;;66.00;;
2476;SDS011;1249;51.270;6.756;2023-02-28T01:32:34;94.87;;;88.40;;
2476;SDS011;1249;51.270;6.756;2023-02-28T01:35:01;78.90;;;74.30;;
2476;SDS011;1249;51.270;6.756;2023-02-28T01:37:28;101.77;;;96.20;;
2476;SDS011;1249;51.270;6.756;2023-02-28T01:39:56;93.40;;;86.43;;
2476;SDS011;1249;51.270;6.756;2023-02-28T01:42:23;72.47;;;67.60;;
2476;SDS011;1249;51.270;6.756;2023-02-28T01:47:47;85.07;;;79.07;;
2476;SDS011;1249;51.270;6.756;2023-02-28T01:50:17;68.70;;;63.87;;
2476;SDS011;1249;51.270;6.756;2023-02-28T01:52:46;87.83;;;82.50;;
2476;SDS011;1249;51.270;6.756;2023-02-28T01:55:15;72.97;;;67.10;;
2476;SDS011;1249;51.270;6.756;2023-02-28T01:57:45;101.23;;;94.47;;
2476;SDS011;1249;51.270;6.756;2023-02-28T02:00:17;76.03;;;70.87;;
2476;SDS011;1249;51.270;6.756;2023-02-28T02:02:48;98.90;;;94.23;;
2476;SDS011;1249;51.270;6.756;2023-02-28T02:05:18;74.87;;;68.80;;
2476;SDS011;1249;51.270;6.756;2023-02-28T02:07:46;58.03;;;54.33;;
2476;SDS011;1249;51.270;6.756;2023-02-28T02:10:17;68.83;;;64.53;;
2476;SDS011;1249;51.270;6.756;2023-02-28T02:12:51;86.43;;;81.30;;
2476;SDS011;1249;51.270;6.756;2023-02-28T02:15:29;92.03;;;85.77;;
2476;SDS011;1249;51.270;6.756;2023-02-28T02:18:01;86.70;;;81.50;;
2476;SDS011;1249;51.270;6.756;2023-02-28T02:20:32;72.37;;;67.63;;
2476;SDS011;1249;51.270;6.756;2023-02-28T02:23:23;90.03;;;84.57;;
2476;SDS011;1249;51.270;6.756;2023-02-28T02:26:31;85.67;;;80.60;;
2476;SDS011;1249;51.270;6.756;2023-02-28T02:29:33;109.97;;;103.40;;
2476;SDS011;1249;51.270;6.756;2023-02-28T02:35:30;76.57;;;71.27;;
2476;SDS011;1249;51.270;6.756;2023-02-28T02:38:03;86.70;;;81.23;;
2476;SDS011;1249;51.270;6.756;2023-02-28T02:40:35;88.10;;;81.77;;
2476;SDS011;1249;51.270;6.756;2023-02-28T02:43:08;107.17;;;101.77;;
2476;SDS011;1249;51.270;6.756;2023-02-28T02:45:42;94.33;;;89.70;;
2476;SDS011;1249;51.270;6.756;2023-02-28T02:48:12;95.77;;;90.50;;
2476;SDS011;1249;51.270;6.756;2023-02-28T02:50:49;92.73;;;87.17;;
2476;SDS011;1249;51.270;6.756;2023-02-28T02:53:20;109.97;;;103.27;;
2476;SDS011;1249;51.270;6.756;2023-02-28T02:55:50;87.50;;;82.97;;
2476;SDS011;1249;51.270;6.756;2023-02-28T02:58:20;78.20;;;73.33;;
2476;SDS011;1249;51.270;6.756;2023-02-28T03:00:52;71.77;;;67.83;;
2476;SDS011;1249;51.270;6.756;2023-02-28T03:03:20;87.97;;;82.73;;
2476;SDS011;1249;51.270;6.756;2023-02-28T03:05:55;83.67;;;77.53;;
2476;SDS011;1249;51.270;6.756;2023-02-28T03:08:23;79.53;;;73.57;;
2476;SDS011;1249;51.270;6.756;2023-02-28T03:10:51;91.37;;;84.57;;
2476;SDS011;1249;51.270;6.756;2023-02-28T03:13:40;98.27;;;93.03;;
2476;SDS011;1249;51.270;6.756;2023-02-28T03:16:22;76.53;;;71.33;;
2476;SDS011;1249;51.270;6.756;2023-02-28T03:19:02;102.50;;;96.97;;
2476;SDS011;1249;51.270;6.756;2023-02-28T03:21:46;83.70;;;77.97;;
2476;SDS011;1249;51.270;6.756;2023-02-28T03:24:21;90.60;;;85.53;;
2476;SDS011;1249;51.270;6.756;2023-02-28T03:26:54;97.60;;;91.27;;
2476;SDS011;1249;51.270;6.756;2023-02-28T03:29:27;97.03;;;91.63;;
2476;SDS011;1249;51.270;6.756;2023-02-28T03:32:00;87.03;;;81.77;;
2476;SDS011;1249;51.270;6.756;2023-02-28T03:34:33;74.23;;;69.13;;
2476;SDS011;1249;51.270;6.756;2023-02-28T03:37:05;102.33;;;96.43;;
2476;SDS011;1249;51.270;6.756;2023-02-28T03:39:37;75.70;;;71.63;;
2476;SDS011;1249;51.270;6.756;2023-02-28T03:42:09;84.77;;;80.03;;
2476;SDS011;1249;51.270;6.756;2023-02-28T03:44:39;90.07;;;84.23;;
2476;SDS011;1249;51.270;6.756;2023-02-28T03:47:10;78.43;;;72.50;;
2476;SDS011;1249;51.270;6.756;2023-02-28T03:49:42;111.43;;;104.33;;
2476;SDS011;1249;51.270;6.756;2023-02-28T03:52:15;87.33;;;81.73;;
2476;SDS011;1249;51.270;6.756;2023-02-28T03:54:47;82.57;;;77.63;;
2476;SDS011;1249;51.270;6.756;2023-02-28T03:57:27;98.23;;;93.03;;
2476;SDS011;1249;51.270;6.756;2023-02-28T04:00:03;96.23;;;89.80;;
2476;SDS011;1249;51.270;6.756;2023-02-28T04:02:33;109.23;;;102.83;;
2476;SDS011;1249;51.270;6.756;2023-02-28T04:05:00;114.10;;;106.33;;
2476;SDS011;1249;51.270;6.756;2023-02-28T04:07:30;71.03;;;66.90;;
2476;SDS011;1249;51.270;6.756;2023-02-28T04:09:57;96.17;;;90.07;;
2476;SDS011;1249;51.270;6.756;2023-02-28T04:12:24;103.93;;;97.00;;
2476;SDS011;1249;51.270;6.756;2023-02-28T04:14:51;133.03;;;124.40;;
2476;SDS011;1249;51.270;6.756;2023-02-28T04:17:18;86.13;;;79.90;;
2476;SDS011;1249;51.270;6.756;2023-02-28T04:19:45;93.77;;;88.63;;
2476;SDS011;1249;51.270;6.756;2023-02-28T04:22:11;95.30;;;89.40;;
2476;SDS011;1249;51.270;6.756;2023-02-28T04:24:39;110.63;;;104.90;;
2476;SDS011;1249;51.270;6.756;2023-02-28T04:27:08;95.37;;;88.73;;
2476;SDS011;1249;51.270;6.756;2023-02-28T04:29:35;89.13;;;83.57;;
2476;SDS011;1249;51.270;6.756;2023-02-28T04:32:02;89.90;;;84.57;;
2476;SDS011;1249;51.270;6.756;2023-02-28T04:34:30;127.67;;;120.47;;
2476;SDS011;1249;51.270;6.756;2023-02-28T04:36:58;95.77;;;90.23;;
2476;SDS011;1249;51.270;6.756;2023-02-28T04:39:25;85.47;;;79.87;;
2476;SDS011;1249;51.270;6.756;2023-02-28T04:41:53;112.77;;;106.10;;
2476;SDS011;1249;51.270;6.756;2023-02-28T04:44:20;80.13;;;74.77;;
2476;SDS011;1249;51.270;6.756;2023-02-28T04:46:47;100.80;;;94.93;;
2476;SDS011;1249;51.270;6.756;2023-02-28T04:49:15;153.73;;;145.57;;
2476;SDS011;1249;51.270;6.756;2023-02-28T04:51:42;76.30;;;71.40;;
2476;SDS011;1249;51.270;6.756;2023-02-28T04:54:08;81.80;;;75.73;;
2476;SDS011;1249;51.270;6.756;2023-02-28T04:56:36;89.23;;;83.53;;
2476;SDS011;1249;51.270;6.756;2023-02-28T04:59:04;102.20;;;95.70;;
2476;SDS011;1249;51.270;6.756;2023-02-28T05:01:31;91.67;;;86.43;;
2476;SDS011;1249;51.270;6.756;2023-02-28T05:04:00;100.90;;;94.80;;
2476;SDS011;1249;51.270;6.756;2023-02-28T05:06:29;101.43;;;96.40;;
2476;SDS011;1249;51.270;6.756;2023-02-28T05:08:57;92.80;;;88.03;;
2476;SDS011;1249;51.270;6.756;2023-02-28T05:11:25;64.27;;;59.60;;
2476;SDS011;1249;51.270;6.756;2023-02-28T05:13:58;97.40;;;91.67;;
2476;SDS011;1249;51.270;6.756;2023-02-28T05:16:26;68.93;;;64.63;;
2476;SDS011;1249;51.270;6.756;2023-02-28T05:18:53;66.63;;;62.47;;
2476;SDS011;1249;51.270;6.756;2023-02-28T05:21:24;115.17;;;107.80;;
2476;SDS011;1249;51.270;6.756;2023-02-28T05:23:55;103.80;;;98.50;;
2476;SDS011;1249;51.270;6.756;2023-02-28T05:26:24;90.40;;;84.60;;
2476;SDS011;1249;51.270;6.756;2023-02-28T05:28:51;99.17;;;92.30;;
2476;SDS011;1249;51.270;6.756;2023-02-28T05:31:19;99.93;;;94.07;;
2476;SDS011;1249;51.270;6.756;2023-02-28T05:33:47;88.13;;;81.33;;
2476;SDS011;1249;51.270;6.756;2023-02-28T05:36:14;89.40;;;84.00;;
2476;SDS011;1249;51.270;6.756;2023-02-28T05:38:41;89.70;;;84.67;;
2476;SDS011;1249;51.270;6.756;2023-02-28T05:41:08;74.67;;;70.13;;
2476;SDS011;1249;51.270;6.756;2023-02-28T05:43:36;100.10;;;94.77;;
2476;SDS011;1249;51.270;6.756;2023-02-28T05:46:04;118.27;;;111.53;;
2476;SDS011;1249;51.270;6.756;2023-02-28T05:48:31;94.87;;;89.27;;
2476;SDS011;1249;51.270;6.756;2023-02-28T05:51:00;121.83;;;115.30;;
2476;SDS011;1249;51.270;6.756;2023-02-28T05:53:27;85.93;;;80.53;;
2476;SDS011;1249;51.270;6.756;2023-02-28T05:55:55;77.00;;;71.07;;
2476;SDS011;1249;51.270;6.756;2023-02-28T05:58:22;86.07;;;81.87;;
2476;SDS011;1249;51.270;6.756;2023-02-28T06:00:50;65.70;;;61.63;;
2476;SDS011;1249;51.270;6.756;2023-02-28T06:03:17;111.80;;;103.87;;
2476;SDS011;1249;51.270;6.756;2023-02-28T06:05:44;117.77;;;109.83;;
2476;SDS011;1249;51.270;6.756;2023-02-28T06:08:12;101.23;;;94.63;;
2476;SDS011;1249;51.270;6.756;2023-02-28T06:10:44;125.27;;;118.33;;
2476;SDS011;1249;51.270;6.756;2023-02-28T06:13:16;96.87;;;91.17;;
2476;SDS011;1249;51.270;6.756;2023-02-28T06:15:43;87.80;;;82.57;;
2476;SDS011;1249;51.270;6.756;2023-02-28T06:18:09;118.93;;;111.47;;
2476;SDS011;1249;51.270;6.756;2023-02-28T06:23:13;95.77;;;89.87;;
2476;SDS011;1249;51.270;6.756;2023-02-28T06:25:44;107.10;;;100.03;;
2476;SDS011;1249;51.270;6.756;2023-02-28T06:28:11;92.17;;;84.87;;
2476;SDS011;1249;51.270;6.756;2023-02-28T06:33:14;95.80;;;89.80;;
2476;SDS011;1249;51.270;6.756;2023-02-28T06:35:43;100.67;;;94.10;;
2476;SDS011;1249;51.270;6.756;2023-02-28T06:38:10;76.20;;;71.37;;
2476;SDS011;1249;51.270;6.756;2023-02-28T06:40:38;45.23;;;40.63;;
2476;SDS011;1249;51.270;6.756;2023-02-28T06:43:05;46.30;;;42.67;;
2476;SDS011;1249;51.270;6.756;2023-02-28T06:48:06;84.37;;;78.80;;
2476;SDS011;1249;51.270;6.756;2023-02-28T06:50:32;80.30;;;74.70;;
2476;SDS011;1249;51.270;6.756;2023-02-28T06:52:59;60.90;;;56.60;;
2476;SDS011;1249;51.270;6.756;2023-02-28T06:55:26;52.40;;;49.33;;
2476;SDS011;1249;51.270;6.756;2023-02-28T06:57:54;87.80;;;81.63;;
2476;SDS011;1249;51.270;6.756;2023-02-28T07:00:21;47.30;;;43.83;;
2476;SDS011;1249;51.270;6.756;2023-02-28T07:02:51;63.53;;;59.33;;
2476;SDS011;1249;51.270;6.756;2023-02-28T07:05:18;66.30;;;62.00;;
2476;SDS011;1249;51.270;6.756;2023-02-28T07:07:45;95.50;;;89.40;;
2476;SDS011;1249;51.270;6.756;2023-02-28T07:10:12;82.53;;;76.30;;
2476;SDS011;1249;51.270;6.756;2023-02-28T07:12:41;83.83;;;77.93;;
2476;SDS011;1249;51.270;6.756;2023-02-28T07:15:12;87.27;;;82.03;;
2476;SDS011;1249;51.270;6.756;2023-02-28T07:17:39;72.77;;;67.40;;
2476;SDS011;1249;51.270;6.756;2023-02-28T07:20:06;64.83;;;61.13;;
2476;SDS011;1249;51.270;6.756;2023-02-28T07:22:34;85.70;;;79.80;;
2476;SDS011;1249;51.270;6.756;2023-02-28T07:25:01;87.97;;;83.03;;
2476;SDS011;1249;51.270;6.756;2023-02-28T07:27:27;108.87;;;100.90;;
2476;SDS011;1249;51.270;6.756;2023-02-28T07:29:54;73.27;;;67.97;;
2476;SDS011;1249;51.270;6.756;2023-02-28T07:32:22;90.80;;;85.47;;
2476;SDS011;1249;51.270;6.756;2023-02-28T07:34:49;92.00;;;86.07;;
2476;SDS011;1249;51.270;6.756;2023-02-28T07:37:21;99.97;;;94.60;;
2476;SDS011;1249;51.270;6.756;2023-02-28T07:39:48;87.67;;;81.33;;
2476;SDS011;1249;51.270;6.756;2023-02-28T07:42:16;102.20;;;94.93;;
2476;SDS011;1249;51.270;6.756;2023-02-28T07:44:43;102.17;;;95.07;;
2476;SDS011;1249;51.270;6.756;2023-02-28T07:47:09;78.97;;;73.23;;
2476;SDS011;1249;51.270;6.756;2023-02-28T07:49:38;84.07;;;79.43;;
2476;SDS011;1249;51.270;6.756;2023-02-28T07:52:05;57.97;;;54.87;;
2476;SDS011;1249;51.270;6.756;2023-02-28T07:54:33;109.10;;;102.90;;
2476;SDS011;1249;51.270;6.756;2023-02-28T07:57:00;75.13;;;70.23;;
2476;SDS011;1249;51.270;6.756;2023-02-28T07:59:27;55.17;;;51.73;;
2476;SDS011;1249;51.270;6.756;2023-02-28T08:01:54;89.97;;;83.20;;
2476;SDS011;1249;51.270;6.756;2023-02-28T08:04:23;66.13;;;61.30;;
2476;SDS011;1249;51.270;6.756;2023-02-28T08:06:51;98.90;;;92.23;;
2476;SDS011;1249;51.270;6.756;2023-02-28T08:09:18;82.70;;;78.20;;
2476;SDS011;1249;51.270;6.756;2023-02-28T08:11:45;76.57;;;70.87;;
2476;SDS011;1249;51.270;6.756;2023-02-28T08:14:11;69.97;;;65.67;;
2476;SDS011;1249;51.270;6.756;2023-02-28T08:16:38;64.70;;;60.77;;
2476;SDS011;1249;51.270;6.756;2023-02-28T08:19:05;70.53;;;66.57;;
2476;SDS011;1249;51.270;6.756;2023-02-28T08:21:32;56.30;;;53.30;;
2476;SDS011;1249;51.270;6.756;2023-02-28T08:24:00;62.77;;;58.47;;
2476;SDS011;1249;51.270;6.756;2023-02-28T08:26:27;75.90;;;71.20;;
2476;SDS011;1249;51.270;6.756;2023-02-28T08:28:53;67.23;;;62.87;;
2476;SDS011;1249;51.270;6.756;2023-02-28T08:31:20;54.23;;;49.97;;
2476;SDS011;1249;51.270;6.756;2023-02-28T08:33:48;77.27;;;73.03;;
2476;SDS011;1249;51.270;6.756;2023-02-28T08:36:16;74.23;;;69.87;;
2476;SDS011;1249;51.270;6.756;2023-02-28T08:38:43;86.10;;;81.30;;
2476;SDS011;1249;51.270;6.756;2023-02-28T08:41:12;68.10;;;63.87;;
2476;SDS011;1249;51.270;6.756;2023-02-28T08:43:39;52.83;;;49.00;;
2476;SDS011;1249;51.270;6.756;2023-02-28T08:46:06;87.83;;;81.77;;
2476;SDS011;1249;51.270;6.756;2023-02-28T08:48:34;75.70;;;70.77;;
2476;SDS011;1249;51.270;6.756;2023-02-28T08:51:03;64.30;;;56.70;;
2476;SDS011;1249;51.270;6.756;2023-02-28T08:53:31;91.63;;;84.90;;
2476;SDS011;1249;51.270;6.756;2023-02-28T08:55:59;94.23;;;88.80;;
2476;SDS011;1249;51.270;6.756;2023-02-28T08:58:28;83.77;;;79.13;;
2476;SDS011;1249;51.270;6.756;2023-02-28T09:00:55;27.03;;;25.73;;
2476;SDS011;1249;51.270;6.756;2023-02-28T09:03:22;79.20;;;73.90;;
2476;SDS011;1249;51.270;6.756;2023-02-28T09:05:57;59.67;;;55.73;;
2476;SDS011;1249;51.270;6.756;2023-02-28T09:08:25;73.63;;;68.23;;
2476;SDS011;1249;51.270;6.756;2023-02-28T09:10:53;70.10;;;66.47;;
2476;SDS011;1249;51.270;6.756;2023-02-28T09:13:22;67.00;;;62.93;;
2476;SDS011;1249;51.270;6.756;2023-02-28T09:15:51;99.13;;;93.57;;
2476;SDS011;1249;51.270;6.756;2023-02-28T09:18:18;54.40;;;51.47;;
2476;SDS011;1249;51.270;6.756;2023-02-28T09:20:45;77.63;;;73.53;;
2476;SDS011;1249;51.270;6.756;2023-02-28T09:23:12;69.20;;;64.23;;
2476;SDS011;1249;51.270;6.756;2023-02-28T09:25:44;54.30;;;50.67;;
2476;SDS011;1249;51.270;6.756;2023-02-28T09:28:13;78.57;;;73.53;;
2476;SDS011;1249;51.270;6.756;2023-02-28T09:30:42;51.40;;;48.53;;
2476;SDS011;1249;51.270;6.756;2023-02-28T09:33:12;81.10;;;76.60;;
2476;SDS011;1249;51.270;6.756;2023-02-28T09:35:40;100.40;;;94.07;;
2476;SDS011;1249;51.270;6.756;2023-02-28T09:38:08;78.43;;;74.33;;
2476;SDS011;1249;51.270;6.756;2023-02-28T09:40:35;48.30;;;33.87;;
2476;SDS011;1249;51.270;6.756;2023-02-28T09:43:05;79.03;;;38.43;;
2476;SDS011;1249;51.270;6.756;2023-02-28T09:45:39;48.03;;;28.63;;
2476;SDS011;1249;51.270;6.756;2023-02-28T09:48:10;84.23;;;78.57;;
2476;SDS011;1249;51.270;6.756;2023-02-28T09:50:43;72.40;;;67.90;;
2476;SDS011;1249;51.270;6.756;2023-02-28T09:53:15;101.37;;;96.10;;
2476;SDS011;1249;51.270;6.756;2023-02-28T09:55:47;99.90;;;92.87;;
2476;SDS011;1249;51.270;6.756;2023-02-28T09:58:18;55.03;;;50.27;;
2476;SDS011;1249;51.270;6.756;2023-02-28T10:00:51;50.23;;;44.87;;
2476;SDS011;1249;51.270;6.756;2023-02-28T10:03:29;49.97;;;41.20;;
2476;SDS011;1249;51.270;6.756;2023-02-28T10:05:59;49.40;;;38.17;;
2476;SDS011;1249;51.270;6.756;2023-02-28T10:08:34;84.07;;;78.47;;
2476;SDS011;1249;51.270;6.756;2023-02-28T10:11:07;79.60;;;73.40;;
2476;SDS011;1249;51.270;6.756;2023-02-28T10:13:39;57.20;;;51.67;;
2476;SDS011;1249;51.270;6.756;2023-02-28T10:16:19;75.50;;;70.10;;
2476;SDS011;1249;51.270;6.756;2023-02-28T10:18:54;53.57;;;48.07;;
2476;SDS011;1249;51.270;6.756;2023-02-28T10:21:26;80.00;;;73.83;;
2476;SDS011;1249;51.270;6.756;2023-02-28T10:24:04;70.50;;;65.13;;
2476;SDS011;1249;51.270;6.756;2023-02-28T10:26:45;42.43;;;38.37;;
2476;SDS011;1249;51.270;6.756;2023-02-28T10:29:13;48.10;;;37.67;;
2476;SDS011;1249;51.270;6.756;2023-02-28T10:31:40;48.23;;;35.97;;
2476;SDS011;1249;51.270;6.756;2023-02-28T10:34:08;53.10;;;47.20;;
2476;SDS011;1249;51.270;6.756;2023-02-28T10:36:39;46.93;;;35.50;;
2476;SDS011;1249;51.270;6.756;2023-02-28T10:42:01;47.30;;;38.73;;
2476;SDS011;1249;51.270;6.756;2023-02-28T10:44:28;46.43;;;40.13;;
2476;SDS011;1249;51.270;6.756;2023-02-28T10:46:55;68.10;;;62.40;;
2476;SDS011;1249;51.270;6.756;2023-02-28T10:49:25;113.80;;;108.07;;
2476;SDS011;1249;51.270;6.756;2023-02-28T10:51:54;80.93;;;76.37;;
2476;SDS011;1249;51.270;6.756;2023-02-28T10:54:23;59.10;;;56.03;;
2476;SDS011;1249;51.270;6.756;2023-02-28T10:57:06;71.63;;;67.87;;
2476;SDS011;1249;51.270;6.756;2023-02-28T10:59:35;66.87;;;61.40;;
2476;SDS011;1249;51.270;6.756;2023-02-28T11:02:02;58.23;;;54.47;;
2476;SDS011;1249;51.270;6.756;2023-02-28T11:04:54;61.77;;;58.10;;
2476;SDS011;1249;51.270;6.756;2023-02-28T11:07:21;47.33;;;43.93;;
2476;SDS011;1249;51.270;6.756;2023-02-28T11:09:49;57.73;;;54.27;;
2476;SDS011;1249;51.270;6.756;2023-02-28T11:12:19;46.47;;;43.80;;
2476;SDS011;1249;51.270;6.756;2023-02-28T11:14:49;43.30;;;40.70;;
2476;SDS011;1249;51.270;6.756;2023-02-28T11:17:19;52.00;;;48.70;;
2476;SDS011;1249;51.270;6.756;2023-02-28T11:19:49;43.93;;;41.03;;
2476;SDS011;1249;51.270;6.756;2023-02-28T11:22:21;49.77;;;47.10;;
2476;SDS011;1249;51.270;6.756;2023-02-28T11:24:51;41.73;;;39.20;;
2476;SDS011;1249;51.270;6.756;2023-02-28T11:27:25;51.13;;;47.23;;
2476;SDS011;1249;51.270;6.756;2023-02-28T11:30:05;42.20;;;39.77;;
2476;SDS011;1249;51.270;6.756;2023-02-28T11:32:50;36.00;;;33.97;;
2476;SDS011;1249;51.270;6.756;2023-02-28T11:35:18;37.53;;;35.53;;
2476;SDS011;1249;51.270;6.756;2023-02-28T11:37:51;55.90;;;52.10;;
2476;SDS011;1249;51.270;6.756;2023-02-28T11:40:18;42.07;;;40.03;;
2476;SDS011;1249;51.270;6.756;2023-02-28T11:42:57;59.93;;;56.63;;
2476;SDS011;1249;51.270;6.756;2023-02-28T11:45:37;49.87;;;47.03;;
2476;SDS011;1249;51.270;6.756;2023-02-28T11:48:13;65.10;;;60.93;;
2476;SDS011;1249;51.270;6.756;2023-02-28T11:50:48;34.93;;;32.90;;
2476;SDS011;1249;51.270;6.756;2023-02-28T11:53:24;45.47;;;42.80;;
2476;SDS011;1249;51.270;6.756;2023-02-28T11:56:06;30.10;;;28.27;;
2476;SDS011;1249;51.270;6.756;2023-02-28T11:58:43;42.50;;;40.27;;
2476;SDS011;1249;51.270;6.756;2023-02-28T12:01:18;41.93;;;39.07;;
2476;SDS011;1249;51.270;6.756;2023-02-28T12:03:56;38.47;;;36.33;;
2476;SDS011;1249;51.270;6.756;2023-02-28T12:06:31;35.30;;;33.50;;
2476;SDS011;1249;51.270;6.756;2023-02-28T12:09:09;52.33;;;49.70;;
2476;SDS011;1249;51.270;6.756;2023-02-28T12:11:54;43.53;;;41.37;;
2476;SDS011;1249;51.270;6.756;2023-02-28T12:14:41;49.20;;;46.37;;
2476;SDS011;1249;51.270;6.756;2023-02-28T12:17:25;57.20;;;54.13;;
2476;SDS011;1249;51.270;6.756;2023-02-28T12:20:02;44.27;;;41.93;;
2476;SDS011;1249;51.270;6.756;2023-02-28T12:22:40;45.00;;;42.83;;
2476;SDS011;1249;51.270;6.756;2023-02-28T12:28:15;52.70;;;49.40;;
2476;SDS011;1249;51.270;6.756;2023-02-28T12:30:49;59.43;;;55.63;;
2476;SDS011;1249;51.270;6.756;2023-02-28T12:33:20;49.47;;;46.57;;
2476;SDS011;1249;51.270;6.756;2023-02-28T12:35:52;45.47;;;42.87;;
2476;SDS011;1249;51.270;6.756;2023-02-28T12:38:22;32.70;;;30.70;;
2476;SDS011;1249;51.270;6.756;2023-02-28T12:40:54;50.77;;;47.87;;
2476;SDS011;1249;51.270;6.756;2023-02-28T12:43:27;41.90;;;38.60;;
2476;SDS011;1249;51.270;6.756;2023-02-28T12:45:59;47.13;;;44.30;;
2476;SDS011;1249;51.270;6.756;2023-02-28T12:48:31;38.30;;;36.03;;
2476;SDS011;1249;51.270;6.756;2023-02-28T12:51:05;44.97;;;42.13;;
2476;SDS011;1249;51.270;6.756;2023-02-28T12:53:35;39.63;;;37.77;;
2476;SDS011;1249;51.270;6.756;2023-02-28T12:56:15;33.30;;;31.60;;
2476;SDS011;1249;51.270;6.756;2023-02-28T12:58:48;51.87;;;48.80;;
2476;SDS011;1249;51.270;6.756;2023-02-28T13:01:31;51.30;;;48.00;;
2476;SDS011;1249;51.270;6.756;2023-02-28T13:10:13;41.20;;;38.77;;
2476;SDS011;1249;51.270;6.756;2023-02-28T13:12:48;44.30;;;41.90;;
2476;SDS011;1249;51.270;6.756;2023-02-28T13:15:17;40.33;;;38.03;;
2476;SDS011;1249;51.270;6.756;2023-02-28T13:17:49;40.27;;;37.73;;
2476;SDS011;1249;51.270;6.756;2023-02-28T13:20:18;43.80;;;40.63;;
2476;SDS011;1249;51.270;6.756;2023-02-28T13:22:47;40.93;;;38.87;;
2476;SDS011;1249;51.270;6.756;2023-02-28T13:31:30;27.87;;;26.30;;
2476;SDS011;1249;51.270;6.756;2023-02-28T13:34:04;32.47;;;30.43;;
2476;SDS011;1249;51.270;6.756;2023-02-28T13:36:38;48.57;;;46.10;;
2476;SDS011;1249;51.270;6.756;2023-02-28T13:39:44;41.70;;;38.37;;
2476;SDS011;1249;51.270;6.756;2023-02-28T13:42:32;38.77;;;36.23;;
2476;SDS011;1249;51.270;6.756;2023-02-28T13:45:21;32.33;;;30.73;;
2476;SDS011;1249;51.270;6.756;2023-02-28T13:50:44;42.90;;;40.30;;
2476;SDS011;1249;51.270;6.756;2023-02-28T13:53:19;38.30;;;36.00;;
2476;SDS011;1249;51.270;6.756;2023-02-28T13:56:07;33.67;;;31.33;;
2476;SDS011;1249;51.270;6.756;2023-02-28T13:58:48;45.63;;;43.17;;
2476;SDS011;1249;51.270;6.756;2023-02-28T14:01:39;39.90;;;37.33;;
2476;SDS011;1249;51.270;6.756;2023-02-28T14:04:39;35.70;;;33.27;;
2476;SDS011;1249;51.270;6.756;2023-02-28T14:07:26;34.77;;;33.27;;
2476;SDS011;1249;51.270;6.756;2023-02-28T14:09:58;40.47;;;37.67;;
2476;SDS011;1249;51.270;6.756;2023-02-28T14:15:27;45.37;;;42.67;;
2476;SDS011;1249;51.270;6.756;2023-02-28T14:18:05;41.77;;;39.43;;
2476;SDS011;1249;51.270;6.756;2023-02-28T14:20:43;44.93;;;42.70;;
2476;SDS011;1249;51.270;6.756;2023-02-28T14:23:13;27.87;;;26.03;;
2476;SDS011;1249;51.270;6.756;2023-02-28T14:25:47;38.77;;;36.03;;
2476;SDS011;1249;51.270;6.756;2023-02-28T14:28:40;26.23;;;24.83;;
2476;SDS011;1249;51.270;6.756;2023-02-28T14:31:17;38.40;;;36.20;;
2476;SDS011;1249;51.270;6.756;2023-02-28T14:34:02;38.40;;;36.33;;
2476;SDS011;1249;51.270;6.756;2023-02-28T14:36:48;31.70;;;29.93;;
2476;SDS011;1249;51.270;6.756;2023-02-28T14:39:19;41.50;;;39.37;;
2476;SDS011;1249;51.270;6.756;2023-02-28T14:41:48;52.83;;;49.87;;
2476;SDS011;1249;51.270;6.756;2023-02-28T14:44:16;34.73;;;32.47;;
2476;SDS011;1249;51.270;6.756;2023-02-28T14:46:45;49.60;;;46.37;;
2476;SDS011;1249;51.270;6.756;2023-02-28T14:49:16;46.57;;;44.63;;
2476;SDS011;1249;51.270;6.756;2023-02-28T14:51:44;32.20;;;30.63;;
2476;SDS011;1249;51.270;6.756;2023-02-28T14:54:15;37.47;;;35.30;;
2476;SDS011;1249;51.270;6.756;2023-02-28T14:56:49;30.60;;;28.90;;
2476;SDS011;1249;51.270;6.756;2023-02-28T14:59:23;36.60;;;34.57;;
2476;SDS011;1249;51.270;6.756;2023-02-28T15:01:52;22.17;;;21.03;;
2476;SDS011;1249;51.270;6.756;2023-02-28T15:04:34;42.40;;;39.63;;
2476;SDS011;1249;51.270;6.756;2023-02-28T15:07:07;25.00;;;23.33;;
2476;SDS011;1249;51.270;6.756;2023-02-28T15:09:35;46.37;;;43.60;;
2476;SDS011;1249;51.270;6.756;2023-02-28T15:12:02;45.07;;;42.07;;
2476;SDS011;1249;51.270;6.756;2023-02-28T15:14:29;42.67;;;40.53;;
2476;SDS011;1249;51.270;6.756;2023-02-28T15:16:56;41.77;;;39.20;;
2476;SDS011;1249;51.270;6.756;2023-02-28T15:19:26;20.13;;;18.50;;
2476;SDS011;1249;51.270;6.756;2023-02-28T15:21:56;32.83;;;30.70;;
2476;SDS011;1249;51.270;6.756;2023-02-28T15:24:29;34.20;;;31.73;;
2476;SDS011;1249;51.270;6.756;2023-02-28T15:27:04;40.33;;;38.10;;
2476;SDS011;1249;51.270;6.756;2023-02-28T15:29:34;34.97;;;32.97;;
2476;SDS011;1249;51.270;6.756;2023-02-28T15:32:16;31.97;;;29.80;;
2476;SDS011;1249;51.270;6.756;2023-02-28T15:34:51;47.20;;;44.73;;
2476;SDS011;1249;51.270;6.756;2023-02-28T15:37:26;49.03;;;46.40;;
2476;SDS011;1249;51.270;6.756;2023-02-28T15:40:11;40.80;;;38.50;;
2476;SDS011;1249;51.270;6.756;2023-02-28T15:42:42;34.30;;;32.17;;
2476;SDS011;1249;51.270;6.756;2023-02-28T15:45:28;46.00;;;43.30;;
2476;SDS011;1249;51.270;6.756;2023-02-28T15:48:00;52.30;;;49.13;;